Time;durP1;ratioP1;P1;durP2;ratioP2;P2;SDS_P1;SDS_P2;PMS_P1;PMS_P2;Temp;Humidity;BMP_temperature;BMP_pressure;BME280_temperature;BME280_humidity;BME280_pressure;Samples;Min_cycle;Max_cycle;Signal;HPM_P1;HPM_P2
2022/08/04 00:02:34;;;;;;;;;;;18.70;75.40;;;;;;5059317;28;19912;-64
2022/08/04 00:05:02;;;;;;;;;;;18.70;74.90;;;;;;5067206;28;19915;-65
2022/08/04 00:07:36;;;;;;;;;;;18.70;75.40;;;;;;5090039;28;19931;-65
2022/08/04 00:10:04;;;;;;;;;;;18.60;75.90;;;;;;5072302;28;19915;-65
2022/08/04 00:12:34;;;;;;;;;;;18.70;75.60;;;;;;5057343;28;19916;-65
2022/08/04 00:15:01;;;;;;;;;;;18.70;75.10;;;;;;5092069;28;19915;-65
2022/08/04 00:17:30;;;;;;;;;;;18.80;75.00;;;;;;5074527;28;20345;-65
2022/08/04 00:22:29;;;;;;;;;;;18.80;75.20;;;;;;5101769;28;20010;-65
2022/08/04 00:24:55;;;;;;;;;;;18.80;75.10;;;;;;5112500;28;20281;-65
2022/08/04 00:27:22;;;;;;;;;;;18.80;75.20;;;;;;5094127;28;20322;-64
2022/08/04 00:29:49;;;;;;;;;;;18.80;75.10;;;;;;5112615;28;19912;-64
2022/08/04 00:32:15;;;;;;;;;;;18.80;75.20;;;;;;5107582;28;19907;-65
2022/08/04 00:34:42;;;;;;;;;;;18.90;75.00;;;;;;5112118;28;19908;-65
2022/08/04 00:37:09;;;;;;;;;;;18.80;75.20;;;;;;5094235;28;19908;-65
2022/08/04 00:39:35;;;;;;;;;;;18.80;75.40;;;;;;5094098;28;19927;-64
2022/08/04 00:42:05;;;;;;;;;;;18.90;75.40;;;;;;5087315;28;19984;-65
2022/08/04 00:44:34;;;;;;;;;;;18.90;75.60;;;;;;5100463;28;19904;-65
2022/08/04 00:47:04;;;;;;;;;;;19.00;75.00;;;;;;5111852;28;19918;-64
2022/08/04 00:49:31;;;;;;;;;;;19.00;74.60;;;;;;5112196;28;19908;-65
2022/08/04 00:52:01;;;;;;;;;;;19.00;74.90;;;;;;5100829;28;19965;-64
2022/08/04 00:54:41;;;;;;;;;;;18.90;75.20;;;;;;5111790;28;19930;-65
2022/08/04 00:57:26;;;;;;;;;;;18.90;75.30;;;;;;5083623;28;19914;-65
2022/08/04 00:59:55;;;;;;;;;;;18.90;75.40;;;;;;5111758;28;19914;-64
2022/08/04 01:02:22;;;;;;;;;;;18.90;75.20;;;;;;5108005;28;20002;-65
2022/08/04 01:04:57;;;;;;;;;;;18.90;75.40;;;;;;5111868;28;20303;-64
2022/08/04 01:07:42;;;;;;;;;;;19.00;75.60;;;;;;5102709;28;19916;-65
2022/08/04 01:10:17;;;;;;;;;;;19.00;75.40;;;;;;5102908;28;19939;-65
2022/08/04 01:12:50;;;;;;;;;;;19.00;75.30;;;;;;5101825;28;19973;-64
2022/08/04 01:15:26;;;;;;;;;;;19.00;75.10;;;;;;5112059;28;19920;-64
2022/08/04 01:18:04;;;;;;;;;;;19.00;75.00;;;;;;5111605;28;19946;-64
2022/08/04 01:23:12;;;;;;;;;;;19.00;75.10;;;;;;5090630;28;19974;-65
2022/08/04 01:25:43;;;;;;;;;;;19.10;74.90;;;;;;5111496;28;19992;-65
2022/08/04 01:28:18;;;;;;;;;;;19.20;74.60;;;;;;5093095;28;19994;-65
2022/08/04 01:30:45;;;;;;;;;;;19.20;75.00;;;;;;5093335;28;19904;-65
2022/08/04 01:33:14;;;;;;;;;;;19.10;74.90;;;;;;5098540;28;19937;-65
2022/08/04 01:35:48;;;;;;;;;;;19.20;74.50;;;;;;5093330;28;20002;-65
2022/08/04 01:38:32;;;;;;;;;;;19.10;74.40;;;;;;5110883;28;19968;-65
2022/08/04 01:41:00;;;;;;;;;;;19.20;74.80;;;;;;5110705;28;20389;-65
2022/08/04 01:43:27;;;;;;;;;;;19.20;74.50;;;;;;5083013;28;19908;-64
2022/08/04 01:45:57;;;;;;;;;;;19.20;74.10;;;;;;5093472;28;20314;-65
2022/08/04 01:48:24;;;;;;;;;;;19.20;74.30;;;;;;5111073;28;19923;-64
2022/08/04 01:50:53;;;;;;;;;;;19.20;74.50;;;;;;5110952;28;19960;-64
2022/08/04 01:53:20;;;;;;;;;;;19.20;74.70;;;;;;5079226;28;19912;-64
2022/08/04 01:55:48;;;;;;;;;;;19.20;74.70;;;;;;5099645;28;20003;-65
2022/08/04 01:58:17;;;;;;;;;;;19.20;74.80;;;;;;5087503;28;19911;-65
2022/08/04 02:00:45;;;;;;;;;;;19.20;74.80;;;;;;5110911;28;19952;-64
2022/08/04 02:03:13;;;;;;;;;;;19.20;74.30;;;;;;5101639;28;19912;-65
2022/08/04 02:05:39;;;;;;;;;;;19.30;74.50;;;;;;5092437;28;20474;-65
2022/08/04 02:08:25;;;;;;;;;;;19.30;74.20;;;;;;5092437;28;20395;-65
2022/08/04 02:10:57;;;;;;;;;;;19.20;74.30;;;;;;5110680;28;20048;-65
2022/08/04 02:13:24;;;;;;;;;;;19.20;74.60;;;;;;5110771;28;19912;-65
2022/08/04 02:16:03;;;;;;;;;;;19.30;74.30;;;;;;5110402;28;19951;-64
2022/08/04 02:18:31;;;;;;;;;;;19.30;74.70;;;;;;5110644;28;19914;-64
2022/08/04 02:20:59;;;;;;;;;;;19.20;74.50;;;;;;5078972;28;19962;-65
2022/08/04 03:25:03;;;;;;;;;;;19.30;76.00;;;;;;5085505;28;19952;-65
2022/08/04 03:27:48;;;;;;;;;;;19.30;76.10;;;;;;5089092;28;19968;-64
2022/08/04 03:30:14;;;;;;;;;;;19.30;76.40;;;;;;5094932;28;19904;-65
2022/08/04 03:32:44;;;;;;;;;;;19.30;76.20;;;;;;5082224;28;19904;-65
2022/08/04 03:35:30;;;;;;;;;;;19.30;76.00;;;;;;5091082;28;19908;-64
2022/08/04 03:38:00;;;;;;;;;;;19.30;75.60;;;;;;5053323;28;19988;-64
2022/08/04 03:40:55;;;;;;;;;;;19.30;75.80;;;;;;5095098;28;19904;-64
2022/08/04 03:43:40;;;;;;;;;;;19.30;76.00;;;;;;5076746;28;19915;-64
2022/08/04 03:46:07;;;;;;;;;;;19.30;76.00;;;;;;5089270;28;19928;-64
2022/08/04 03:48:39;;;;;;;;;;;19.30;75.80;;;;;;5076491;28;19908;-64
2022/08/04 03:53:53;;;;;;;;;;;19.30;75.60;;;;;;5068357;28;19992;-65
2022/08/04 03:56:26;;;;;;;;;;;19.30;75.90;;;;;;5074834;28;19912;-63
2022/08/04 03:58:55;;;;;;;;;;;19.30;76.10;;;;;;5065351;28;20247;-64
2022/08/04 04:01:24;;;;;;;;;;;19.20;76.00;;;;;;5092483;28;19914;-64
2022/08/04 04:04:10;;;;;;;;;;;19.20;76.10;;;;;;5092059;28;19904;-64
2022/08/04 04:06:42;;;;;;;;;;;19.20;76.20;;;;;;5059661;28;19962;-64
2022/08/04 04:09:09;;;;;;;;;;;19.30;76.20;;;;;;5089942;28;19955;-64
2022/08/04 04:11:36;;;;;;;;;;;19.30;76.30;;;;;;5092589;28;19961;-64
2022/08/04 04:14:08;;;;;;;;;;;19.30;76.40;;;;;;5092226;28;19908;-64
2022/08/04 04:16:53;;;;;;;;;;;19.30;76.00;;;;;;5064111;28;19911;-64
2022/08/04 04:19:38;;;;;;;;;;;19.20;75.40;;;;;;5089863;28;19904;-64
2022/08/04 04:22:27;;;;;;;;;;;19.30;74.50;;;;;;5075297;28;19908;-64
2022/08/04 04:25:00;;;;;;;;;;;19.30;74.40;;;;;;5048364;28;19937;-64
2022/08/04 04:27:30;;;;;;;;;;;19.30;74.10;;;;;;5078233;28;19957;-64
2022/08/04 04:30:05;;;;;;;;;;;19.30;73.90;;;;;;5064437;28;19908;-64
2022/08/04 04:32:47;;;;;;;;;;;19.30;73.40;;;;;;5092395;28;19977;-64
2022/08/04 04:35:35;;;;;;;;;;;19.40;72.80;;;;;;5057848;28;20323;-64
2022/08/04 04:38:27;;;;;;;;;;;19.40;71.50;;;;;;5056695;28;19912;-64
2022/08/04 04:41:04;;;;;;;;;;;19.50;70.20;;;;;;5088315;28;19908;-64
2022/08/04 04:43:54;;;;;;;;;;;19.50;70.20;;;;;;5091994;28;19918;-64
2022/08/04 04:46:30;;;;;;;;;;;19.50;70.00;;;;;;5042660;28;19944;-64
2022/08/04 04:49:08;;;;;;;;;;;19.50;69.90;;;;;;5091819;28;20014;-64
2022/08/04 04:51:53;;;;;;;;;;;19.50;69.10;;;;;;5092053;28;19912;-64
2022/08/04 05:28:45;;;;;;;;;;;19.30;69.70;;;;;;5098379;28;19927;-65
2022/08/04 05:31:12;;;;;;;;;;;19.30;70.20;;;;;;5094709;28;19908;-64
2022/08/04 05:33:46;;;;;;;;;;;19.30;71.20;;;;;;5107972;28;19987;-65
2022/08/04 05:36:17;;;;;;;;;;;19.20;71.30;;;;;;5106133;28;20276;-64
2022/08/04 05:38:43;;;;;;;;;;;19.20;71.40;;;;;;5073589;28;19904;-64
2022/08/04 05:41:10;;;;;;;;;;;19.20;71.60;;;;;;5086618;28;20113;-65
2022/08/04 05:43:41;;;;;;;;;;;19.20;71.80;;;;;;5092187;28;19908;-64
2022/08/04 05:46:08;;;;;;;;;;;19.20;72.50;;;;;;5072979;28;19938;-65
2022/08/04 05:48:35;;;;;;;;;;;19.10;73.30;;;;;;5073860;28;19919;-65
2022/08/04 05:51:02;;;;;;;;;;;19.10;74.60;;;;;;5091104;28;19953;-65
2022/08/04 05:53:29;;;;;;;;;;;19.00;75.70;;;;;;5090220;28;19957;-64
2022/08/04 05:55:55;;;;;;;;;;;18.90;75.90;;;;;;5073804;28;19908;-65
2022/08/04 05:58:22;;;;;;;;;;;18.90;76.00;;;;;;5090546;28;19924;-64
2022/08/04 06:00:49;;;;;;;;;;;18.80;76.40;;;;;;5087590;28;20077;-64
2022/08/04 06:03:15;;;;;;;;;;;18.80;77.40;;;;;;5084611;28;20007;-64
2022/08/04 06:05:42;;;;;;;;;;;18.80;78.10;;;;;;5098831;28;19912;-64
2022/08/04 06:08:08;;;;;;;;;;;18.70;77.90;;;;;;5078644;28;19978;-64
2022/08/04 06:10:36;;;;;;;;;;;18.70;78.10;;;;;;5097501;28;19911;-63
2022/08/04 06:13:05;;;;;;;;;;;18.70;78.10;;;;;;5100787;28;19923;-64
2022/08/04 06:15:32;;;;;;;;;;;18.70;77.50;;;;;;5067649;28;19951;-63
2022/08/04 06:18:01;;;;;;;;;;;18.80;77.50;;;;;;5068963;28;19944;-63
2022/08/04 06:20:31;;;;;;;;;;;18.80;77.30;;;;;;5100189;28;19913;-63
2022/08/04 06:22:58;;;;;;;;;;;18.80;77.10;;;;;;5088518;28;19911;-64
2022/08/04 06:25:26;;;;;;;;;;;18.80;77.10;;;;;;5108291;28;19911;-64
2022/08/04 06:27:52;;;;;;;;;;;18.80;76.60;;;;;;5081860;28;19920;-64
2022/08/04 06:30:20;;;;;;;;;;;18.90;76.80;;;;;;5106233;28;19912;-63
2022/08/04 06:32:48;;;;;;;;;;;19.00;76.00;;;;;;5075115;28;19911;-64
2022/08/04 06:35:16;;;;;;;;;;;19.00;75.80;;;;;;5107637;28;20045;-63
2022/08/04 06:37:43;;;;;;;;;;;19.00;75.80;;;;;;5100845;28;20373;-64
2022/08/04 06:40:10;;;;;;;;;;;19.10;75.70;;;;;;5112422;28;19911;-62
2022/08/04 06:42:37;;;;;;;;;;;19.10;75.20;;;;;;5102853;28;19933;-63
2022/08/04 06:45:03;;;;;;;;;;;19.20;75.50;;;;;;5093434;28;20411;-63
2022/08/04 06:47:30;;;;;;;;;;;19.10;75.50;;;;;;5098547;28;19915;-63
2022/08/04 06:49:57;;;;;;;;;;;19.20;75.50;;;;;;5076295;28;19911;-63
2022/08/04 06:52:23;;;;;;;;;;;19.20;75.60;;;;;;5092380;28;19922;-63
2022/08/04 06:54:50;;;;;;;;;;;19.10;75.80;;;;;;5083764;28;19951;-63
2022/08/04 09:00:19;;;;;;;;;;;17.50;90.00;;;;;;5039609;28;19933;-62
2022/08/04 09:02:53;;;;;;;;;;;17.40;90.20;;;;;;5064739;28;19924;-66
2022/08/04 09:05:38;;;;;;;;;;;17.30;90.30;;;;;;5044490;28;19934;-66
2022/08/04 09:08:14;;;;;;;;;;;17.30;90.20;;;;;;5050141;28;19920;-65
2022/08/04 09:10:40;;;;;;;;;;;17.30;90.40;;;;;;5052055;28;19916;-66
2022/08/04 09:13:13;;;;;;;;;;;17.30;90.10;;;;;;5050612;28;19917;-66
2022/08/04 09:15:41;;;;;;;;;;;17.30;89.90;;;;;;5051368;28;19912;-67
2022/08/04 09:18:14;;;;;;;;;;;17.20;89.90;;;;;;5039303;28;19991;-65
2022/08/04 09:20:55;;;;;;;;;;;17.20;89.80;;;;;;5064189;28;19920;-65
2022/08/04 09:23:22;;;;;;;;;;;17.20;89.60;;;;;;5045991;28;19916;-65
2022/08/04 09:25:51;;;;;;;;;;;17.20;89.80;;;;;;5048529;28;20059;-65
2022/08/04 09:28:24;;;;;;;;;;;17.20;89.70;;;;;;5050294;28;20015;-65
2022/08/04 09:31:01;;;;;;;;;;;17.20;89.70;;;;;;5052955;28;19919;-64
2022/08/04 09:33:28;;;;;;;;;;;17.20;89.60;;;;;;5051053;28;19967;-64
2022/08/04 09:35:56;;;;;;;;;;;17.20;89.70;;;;;;5050404;28;20000;-63
2022/08/04 09:38:25;;;;;;;;;;;17.20;89.30;;;;;;5053689;28;20340;-63
2022/08/04 09:40:51;;;;;;;;;;;17.20;89.20;;;;;;5065299;28;19935;-65
2022/08/04 09:43:21;;;;;;;;;;;17.20;89.50;;;;;;5066723;28;19913;-63
2022/08/04 09:45:56;;;;;;;;;;;17.20;89.30;;;;;;5065226;28;19954;-64
2022/08/04 09:48:49;;;;;;;;;;;17.20;89.00;;;;;;5065615;28;19921;-63
2022/08/04 09:51:34;;;;;;;;;;;17.20;89.30;;;;;;5064392;28;19912;-64
2022/08/04 09:54:03;;;;;;;;;;;17.20;88.50;;;;;;5064090;28;19904;-63
2022/08/04 09:56:32;;;;;;;;;;;17.20;87.70;;;;;;5066069;28;19912;-64
2022/08/04 09:59:18;;;;;;;;;;;17.20;87.60;;;;;;5065235;28;19924;-64
2022/08/04 10:20:43;;;;;;;;;;;17.30;86.50;;;;;;5072402;28;20400;-64
2022/08/04 10:23:20;;;;;;;;;;;17.30;86.40;;;;;;5062249;28;19912;-64
2022/08/04 10:25:56;;;;;;;;;;;17.30;86.70;;;;;;5046727;28;19912;-65
2022/08/04 10:28:22;;;;;;;;;;;17.30;86.60;;;;;;5069329;28;19934;-62
2022/08/04 10:30:51;;;;;;;;;;;17.30;86.00;;;;;;5050755;28;19912;-62
2022/08/04 10:33:20;;;;;;;;;;;17.20;85.90;;;;;;5045510;28;19912;-63
2022/08/04 10:35:51;;;;;;;;;;;17.30;86.00;;;;;;5065174;28;19912;-64
2022/08/04 10:38:22;;;;;;;;;;;17.30;85.40;;;;;;5073871;28;20023;-64
2022/08/04 10:41:06;;;;;;;;;;;17.30;85.50;;;;;;5065134;28;20012;-64
2022/08/04 10:43:35;;;;;;;;;;;17.30;85.80;;;;;;5044443;28;19982;-63
2022/08/04 10:46:05;;;;;;;;;;;17.30;85.80;;;;;;5066494;28;20006;-64
2022/08/04 10:48:35;;;;;;;;;;;17.30;86.00;;;;;;5067155;28;19916;-64
2022/08/04 10:51:17;;;;;;;;;;;17.30;86.00;;;;;;5047013;28;20034;-64
2022/08/04 10:53:43;;;;;;;;;;;17.30;85.80;;;;;;5069685;28;20018;-64
2022/08/04 10:56:14;;;;;;;;;;;17.30;85.80;;;;;;5050512;28;19904;-64
2022/08/04 10:58:49;;;;;;;;;;;17.30;85.40;;;;;;5051849;28;19962;-64
2022/08/04 11:01:23;;;;;;;;;;;17.30;85.30;;;;;;5051200;28;19999;-65
2022/08/04 11:03:56;;;;;;;;;;;17.30;85.50;;;;;;5064367;28;19994;-64
2022/08/04 11:06:23;;;;;;;;;;;17.30;85.70;;;;;;5045197;28;20370;-65
2022/08/04 11:08:51;;;;;;;;;;;17.30;85.60;;;;;;5067300;28;19920;-65
2022/08/04 11:11:23;;;;;;;;;;;17.30;85.60;;;;;;5034742;28;20322;-64
2022/08/04 11:14:09;;;;;;;;;;;17.30;85.30;;;;;;5045473;28;19995;-66
2022/08/04 11:16:41;;;;;;;;;;;17.30;85.40;;;;;;5067331;28;19920;-66
2022/08/04 11:19:11;;;;;;;;;;;17.30;85.40;;;;;;5070937;28;20006;-66
2022/08/04 11:21:44;;;;;;;;;;;17.30;84.90;;;;;;5075692;28;19923;-66
2022/08/04 11:24:33;;;;;;;;;;;17.30;84.60;;;;;;5075408;28;19912;-66
2022/08/04 11:27:05;;;;;;;;;;;17.30;84.20;;;;;;5091599;28;20030;-66
2022/08/04 11:29:41;;;;;;;;;;;17.30;84.20;;;;;;5093778;28;19959;-65
2022/08/04 11:32:13;;;;;;;;;;;17.40;84.20;;;;;;5085052;28;19938;-65
2022/08/04 11:34:40;;;;;;;;;;;17.30;83.70;;;;;;5086137;28;19947;-65
2022/08/04 11:37:15;;;;;;;;;;;17.40;83.80;;;;;;5083486;28;20320;-65
2022/08/04 11:39:43;;;;;;;;;;;17.40;84.10;;;;;;5070823;28;20353;-65
2022/08/04 11:42:15;;;;;;;;;;;17.40;84.30;;;;;;5092148;28;19943;-66
2022/08/04 11:44:48;;;;;;;;;;;17.40;84.30;;;;;;5101337;28;19912;-63
2022/08/04 11:47:23;;;;;;;;;;;17.40;84.70;;;;;;5091286;28;19919;-65
2022/08/04 11:50:13;;;;;;;;;;;17.40;84.50;;;;;;5099293;28;19911;-65
2022/08/04 11:52:40;;;;;;;;;;;17.40;84.70;;;;;;5083164;28;20368;-66
2022/08/04 11:55:08;;;;;;;;;;;17.40;84.90;;;;;;5089076;28;19908;-66
2022/08/04 11:57:34;;;;;;;;;;;17.30;84.80;;;;;;5073140;28;19915;-67
2022/08/04 12:00:01;;;;;;;;;;;17.40;84.60;;;;;;5094922;28;19912;-67
2022/08/04 12:02:30;;;;;;;;;;;17.40;84.50;;;;;;5095362;28;19920;-67
2022/08/04 12:04:58;;;;;;;;;;;17.40;84.60;;;;;;5104257;28;19904;-66
2022/08/04 12:07:27;;;;;;;;;;;17.40;84.80;;;;;;5104030;28;19938;-67
2022/08/04 12:09:54;;;;;;;;;;;17.40;84.80;;;;;;5090199;28;19915;-67
2022/08/04 12:12:26;;;;;;;;;;;17.30;84.80;;;;;;5090439;28;19907;-67
2022/08/04 12:15:06;;;;;;;;;;;17.40;84.80;;;;;;5081105;28;19912;-66
2022/08/04 12:17:37;;;;;;;;;;;17.40;84.70;;;;;;5091086;28;19912;-65
2022/08/04 12:20:05;;;;;;;;;;;17.40;84.60;;;;;;5070205;28;19911;-64
2022/08/04 12:22:34;;;;;;;;;;;17.30;84.60;;;;;;5088304;28;19920;-68
2022/08/04 12:25:13;;;;;;;;;;;17.30;84.70;;;;;;5067414;28;19911;-68
2022/08/04 12:27:41;;;;;;;;;;;17.30;84.50;;;;;;5081331;28;20658;-66
2022/08/04 12:30:08;;;;;;;;;;;17.30;84.60;;;;;;5089260;28;19927;-67
2022/08/04 12:32:36;;;;;;;;;;;17.30;84.70;;;;;;5072112;28;20366;-67
2022/08/04 12:35:08;;;;;;;;;;;17.30;84.80;;;;;;5069976;28;19908;-66
2022/08/04 12:37:55;;;;;;;;;;;17.30;85.00;;;;;;5080403;28;19965;-64
2022/08/04 12:40:23;;;;;;;;;;;17.30;85.00;;;;;;5088497;28;20008;-66
2022/08/04 12:42:57;;;;;;;;;;;17.30;85.00;;;;;;5073033;28;21280;-66
2022/08/04 12:45:24;;;;;;;;;;;17.30;84.90;;;;;;5066139;28;19948;-63
2022/08/04 12:47:52;;;;;;;;;;;17.30;84.90;;;;;;5090064;28;19920;-67
2022/08/04 12:50:18;;;;;;;;;;;17.30;85.10;;;;;;5091306;28;19941;-63
2022/08/04 12:52:49;;;;;;;;;;;17.30;85.10;;;;;;5088505;28;19912;-63
2022/08/04 12:55:16;;;;;;;;;;;17.30;85.30;;;;;;5068008;28;19912;-65
2022/08/04 12:57:43;;;;;;;;;;;17.30;85.30;;;;;;5070443;28;20019;-63
2022/08/04 13:00:10;;;;;;;;;;;17.30;85.30;;;;;;5070083;28;19916;-63
2022/08/04 13:02:45;;;;;;;;;;;17.30;85.30;;;;;;5065931;28;20007;-66
2022/08/04 13:05:12;;;;;;;;;;;17.30;85.30;;;;;;5087548;28;19937;-64
2022/08/04 13:07:43;;;;;;;;;;;17.30;85.40;;;;;;5085892;28;20460;-64
2022/08/04 13:10:14;;;;;;;;;;;17.20;85.40;;;;;;5087670;28;19914;-63
2022/08/04 13:12:41;;;;;;;;;;;17.30;85.60;;;;;;5092775;28;19918;-67
2022/08/04 13:15:14;;;;;;;;;;;17.30;85.70;;;;;;5067152;28;19942;-63
2022/08/04 13:17:49;;;;;;;;;;;17.30;85.80;;;;;;5070755;28;19912;-65
2022/08/04 13:20:16;;;;;;;;;;;17.20;85.90;;;;;;5060185;28;19908;-64
2022/08/04 13:22:42;;;;;;;;;;;17.30;86.00;;;;;;5071718;28;19927;-66
2022/08/04 13:25:09;;;;;;;;;;;17.30;85.90;;;;;;5079558;28;19919;-66
2022/08/04 13:27:37;;;;;;;;;;;17.30;85.90;;;;;;5072370;28;20000;-65
2022/08/04 13:30:04;;;;;;;;;;;17.30;86.00;;;;;;5109778;28;19908;-65
2022/08/04 13:32:30;;;;;;;;;;;17.30;86.00;;;;;;5092020;28;20470;-65
2022/08/04 13:34:57;;;;;;;;;;;17.30;86.00;;;;;;5072211;28;19914;-65
2022/08/04 13:37:30;;;;;;;;;;;17.30;86.10;;;;;;5086518;28;19908;-65
2022/08/04 13:39:57;;;;;;;;;;;17.30;86.20;;;;;;5100548;28;19923;-65
2022/08/04 13:42:24;;;;;;;;;;;17.20;86.20;;;;;;5072627;28;20018;-65
2022/08/04 13:44:52;;;;;;;;;;;17.20;86.20;;;;;;5075083;28;19908;-65
2022/08/04 13:47:19;;;;;;;;;;;17.30;86.20;;;;;;5109989;28;19916;-65
2022/08/04 14:33:54;;;;;;;;;;;17.50;86.20;;;;;;5064885;28;20039;-63
2022/08/04 14:36:21;;;;;;;;;;;17.40;86.20;;;;;;5070271;28;19915;-63
2022/08/04 14:38:52;;;;;;;;;;;17.40;86.10;;;;;;5067686;28;19904;-62
2022/08/04 14:41:25;;;;;;;;;;;17.40;86.20;;;;;;5069900;28;20358;-62
2022/08/04 14:43:51;;;;;;;;;;;17.40;86.20;;;;;;5069393;28;19908;-66
2022/08/04 14:46:18;;;;;;;;;;;17.40;86.20;;;;;;5067592;28;19912;-63
2022/08/04 14:49:03;;;;;;;;;;;17.40;86.20;;;;;;5072856;28;19920;-63
2022/08/04 14:51:40;;;;;;;;;;;17.40;86.20;;;;;;5073772;28;19930;-63
2022/08/04 14:54:07;;;;;;;;;;;17.40;86.30;;;;;;5071717;28;19913;-63
2022/08/04 14:56:33;;;;;;;;;;;17.40;86.30;;;;;;5050281;28;19908;-63
2022/08/04 14:59:01;;;;;;;;;;;17.40;86.30;;;;;;5085658;28;19940;-63
2022/08/04 15:01:27;;;;;;;;;;;17.40;86.30;;;;;;5072462;28;20532;-63
2022/08/04 15:03:55;;;;;;;;;;;17.40;86.30;;;;;;5054225;28;21920;-63
2022/08/04 15:06:22;;;;;;;;;;;17.40;86.40;;;;;;5054449;28;20422;-63
2022/08/04 15:08:49;;;;;;;;;;;17.40;86.40;;;;;;5073245;28;19938;-63
2022/08/04 15:11:16;;;;;;;;;;;17.40;86.40;;;;;;5072945;28;19966;-63
2022/08/04 15:13:42;;;;;;;;;;;17.40;86.30;;;;;;5054506;28;20010;-63
2022/08/04 15:16:10;;;;;;;;;;;17.40;86.30;;;;;;5069330;28;19913;-63
2022/08/04 15:18:37;;;;;;;;;;;17.40;86.30;;;;;;5072264;28;19911;-63
2022/08/04 15:21:04;;;;;;;;;;;17.30;86.30;;;;;;5072986;28;19924;-63
2022/08/04 15:23:30;;;;;;;;;;;17.30;86.30;;;;;;5054636;28;20005;-63
2022/08/04 15:25:57;;;;;;;;;;;17.30;86.20;;;;;;5071463;28;19908;-63
2022/08/04 15:28:24;;;;;;;;;;;17.30;86.30;;;;;;5073214;28;20060;-63
2022/08/04 15:30:51;;;;;;;;;;;17.30;86.30;;;;;;5071976;28;19908;-63
2022/08/04 15:33:22;;;;;;;;;;;17.30;86.30;;;;;;5072564;28;19948;-63
2022/08/04 15:35:54;;;;;;;;;;;17.30;86.20;;;;;;5072191;28;19916;-63
2022/08/04 15:38:40;;;;;;;;;;;17.30;86.20;;;;;;5073250;28;19927;-62
2022/08/04 15:41:10;;;;;;;;;;;17.30;86.10;;;;;;5072931;28;19915;-63
2022/08/04 15:43:39;;;;;;;;;;;17.30;86.10;;;;;;5071169;28;19931;-63
2022/08/04 15:46:06;;;;;;;;;;;17.30;86.00;;;;;;5071523;28;20243;-63
2022/08/04 15:48:32;;;;;;;;;;;17.30;85.90;;;;;;5055164;28;19919;-63
2022/08/04 15:51:07;;;;;;;;;;;17.30;85.90;;;;;;5068776;28;19967;-62
2022/08/04 15:53:39;;;;;;;;;;;17.30;85.80;;;;;;5070239;28;19954;-63
2022/08/04 15:56:24;;;;;;;;;;;17.30;85.80;;;;;;5072655;28;20361;-64
2022/08/04 15:58:51;;;;;;;;;;;17.30;85.70;;;;;;5065905;28;19982;-64
2022/08/04 16:01:18;;;;;;;;;;;17.30;85.70;;;;;;5071274;28;19952;-64
2022/08/04 16:03:45;;;;;;;;;;;17.30;85.60;;;;;;5070806;28;20397;-64
2022/08/04 16:06:12;;;;;;;;;;;17.30;85.50;;;;;;5071932;28;20385;-64
2022/08/04 16:08:47;;;;;;;;;;;17.30;85.50;;;;;;5072393;28;19925;-64
2022/08/04 16:11:31;;;;;;;;;;;17.30;85.40;;;;;;5072138;28;19934;-64
2022/08/04 16:32:12;;;;;;;;;;;17.10;86.20;;;;;;5049755;28;19928;-72
2022/08/04 16:34:49;;;;;;;;;;;17.10;86.30;;;;;;5052010;28;19944;-72
2022/08/04 16:37:16;;;;;;;;;;;17.10;86.30;;;;;;5034444;28;19909;-72
2022/08/04 16:39:43;;;;;;;;;;;17.10;86.40;;;;;;5031319;28;19904;-72
2022/08/04 16:42:29;;;;;;;;;;;17.10;86.50;;;;;;5034541;28;19909;-72
2022/08/04 16:45:00;;;;;;;;;;;17.00;86.60;;;;;;5032590;28;19912;-72
2022/08/04 16:47:44;;;;;;;;;;;17.00;86.60;;;;;;5033053;28;19956;-71
2022/08/04 16:50:11;;;;;;;;;;;17.00;86.70;;;;;;5050639;28;19913;-72
2022/08/04 16:52:44;;;;;;;;;;;17.00;86.90;;;;;;5050944;28;19982;-72
2022/08/04 16:55:11;;;;;;;;;;;17.00;87.30;;;;;;5033776;28;20357;-71
2022/08/04 16:57:37;;;;;;;;;;;17.00;87.40;;;;;;5050545;28;19919;-72
2022/08/04 17:00:04;;;;;;;;;;;16.90;87.60;;;;;;5046484;28;20263;-72
2022/08/04 17:02:31;;;;;;;;;;;16.90;87.70;;;;;;5050277;28;19967;-71
2022/08/04 17:04:58;;;;;;;;;;;16.90;87.30;;;;;;5033371;28;19908;-72
2022/08/04 17:07:24;;;;;;;;;;;16.90;87.30;;;;;;5033462;28;19940;-72
2022/08/04 17:09:51;;;;;;;;;;;16.90;87.00;;;;;;5023844;28;19916;-71
2022/08/04 17:12:17;;;;;;;;;;;16.90;86.80;;;;;;5050281;28;19915;-71
2022/08/04 17:14:44;;;;;;;;;;;16.90;86.70;;;;;;5049358;28;19905;-72
2022/08/04 17:17:14;;;;;;;;;;;16.90;86.60;;;;;;5050884;28;20437;-71
2022/08/04 17:19:41;;;;;;;;;;;16.90;86.60;;;;;;5048469;28;19912;-71
2022/08/04 17:22:08;;;;;;;;;;;16.90;86.50;;;;;;5032406;28;20252;-72
2022/08/04 17:24:36;;;;;;;;;;;16.90;86.40;;;;;;5050733;28;19905;-72
2022/08/04 17:27:03;;;;;;;;;;;16.90;86.40;;;;;;5049938;28;20408;-72
2022/08/04 17:29:30;;;;;;;;;;;16.90;86.20;;;;;;5049568;28;19920;-72
2022/08/04 17:31:56;;;;;;;;;;;16.90;86.10;;;;;;5048876;28;19931;-72
2022/08/04 17:34:24;;;;;;;;;;;16.90;86.10;;;;;;5049439;28;19909;-72
2022/08/04 17:36:51;;;;;;;;;;;17.00;86.00;;;;;;5032165;28;19959;-72
2022/08/04 17:39:23;;;;;;;;;;;17.00;86.10;;;;;;5050220;28;19996;-72
2022/08/04 17:41:54;;;;;;;;;;;17.00;86.10;;;;;;5031659;28;19913;-72
2022/08/04 17:44:21;;;;;;;;;;;17.00;86.10;;;;;;5048943;28;19909;-72
2022/08/04 17:46:48;;;;;;;;;;;17.00;86.00;;;;;;5047339;28;19904;-72
2022/08/04 17:49:18;;;;;;;;;;;16.90;86.00;;;;;;5049208;28;20329;-72
2022/08/04 17:51:57;;;;;;;;;;;16.90;85.90;;;;;;5049306;28;20370;-71
2022/08/04 17:54:27;;;;;;;;;;;17.00;85.90;;;;;;5050208;28;19909;-72
2022/08/04 17:56:55;;;;;;;;;;;17.00;85.90;;;;;;5049080;28;19928;-72
2022/08/04 17:59:23;;;;;;;;;;;16.90;85.80;;;;;;5048293;28;20059;-72
2022/08/04 18:01:49;;;;;;;;;;;17.00;85.70;;;;;;5046536;28;20021;-72
2022/08/04 18:04:25;;;;;;;;;;;17.00;85.70;;;;;;5033870;28;20016;-72
2022/08/04 18:06:52;;;;;;;;;;;17.00;85.70;;;;;;5032653;28;20011;-72
2022/08/04 18:09:26;;;;;;;;;;;16.90;85.70;;;;;;5031276;28;20311;-72
2022/08/04 18:12:05;;;;;;;;;;;16.90;85.70;;;;;;5050017;28;19908;-72
2022/08/04 18:14:38;;;;;;;;;;;17.00;85.80;;;;;;5022911;28;20058;-71
2022/08/04 18:17:05;;;;;;;;;;;16.90;86.00;;;;;;5051286;28;19909;-72
2022/08/04 18:19:31;;;;;;;;;;;16.90;86.10;;;;;;5032199;28;19917;-72
2022/08/04 18:21:58;;;;;;;;;;;16.90;86.10;;;;;;5051667;28;19909;-71
2022/08/04 18:24:25;;;;;;;;;;;16.80;86.20;;;;;;5037740;28;19908;-72
2022/08/04 18:26:51;;;;;;;;;;;16.90;86.20;;;;;;5056107;28;19905;-72
2022/08/04 18:29:18;;;;;;;;;;;16.90;86.20;;;;;;5054635;28;19913;-72
2022/08/04 18:31:45;;;;;;;;;;;16.90;86.20;;;;;;5054712;28;20007;-72
2022/08/04 18:34:11;;;;;;;;;;;16.80;86.30;;;;;;5055720;28;19908;-72
2022/08/04 18:36:38;;;;;;;;;;;16.90;86.40;;;;;;5041090;28;19908;-72
2022/08/04 18:39:05;;;;;;;;;;;16.80;86.40;;;;;;5037296;28;19912;-72
2022/08/04 18:41:33;;;;;;;;;;;16.80;86.50;;;;;;5053293;28;19916;-72
2022/08/04 18:43:59;;;;;;;;;;;16.90;86.50;;;;;;5045901;28;19904;-72
2022/08/04 18:46:26;;;;;;;;;;;16.80;86.50;;;;;;5055701;28;19908;-71
2022/08/04 18:48:52;;;;;;;;;;;16.80;86.50;;;;;;5054988;28;19971;-72
2022/08/04 18:51:19;;;;;;;;;;;16.80;86.60;;;;;;5053912;28;20000;-72
2022/08/04 18:53:47;;;;;;;;;;;16.80;86.80;;;;;;5054512;28;19908;-71
2022/08/04 18:56:14;;;;;;;;;;;16.80;86.80;;;;;;5037864;28;20256;-72
2022/08/04 18:58:41;;;;;;;;;;;16.80;86.90;;;;;;5042457;28;19931;-71
2022/08/04 19:01:08;;;;;;;;;;;16.70;86.90;;;;;;5027183;28;20327;-72
2022/08/04 19:03:35;;;;;;;;;;;16.70;86.90;;;;;;5051994;28;20023;-72
2022/08/04 19:06:02;;;;;;;;;;;16.70;87.10;;;;;;5051781;28;19923;-72
2022/08/04 19:08:31;;;;;;;;;;;16.70;87.10;;;;;;5052760;28;20438;-72
2022/08/04 19:10:59;;;;;;;;;;;16.70;87.10;;;;;;5052750;28;19944;-72
2022/08/04 19:13:26;;;;;;;;;;;16.60;87.10;;;;;;5036696;28;19905;-72
2022/08/04 19:15:53;;;;;;;;;;;16.60;87.30;;;;;;5041114;28;20329;-72
2022/08/04 19:18:19;;;;;;;;;;;16.50;87.60;;;;;;5035369;28;19908;-72
2022/08/04 19:20:47;;;;;;;;;;;16.50;87.50;;;;;;5054037;28;19916;-72
2022/08/04 19:23:13;;;;;;;;;;;16.60;87.70;;;;;;5053696;28;19970;-71
2022/08/04 19:25:40;;;;;;;;;;;16.50;87.60;;;;;;5053072;28;19908;-71
2022/08/04 19:28:06;;;;;;;;;;;16.50;87.50;;;;;;5033882;28;19960;-71
2022/08/04 19:30:33;;;;;;;;;;;16.60;87.50;;;;;;5052888;28;19924;-71
2022/08/04 19:33:00;;;;;;;;;;;16.50;87.40;;;;;;5054356;28;19918;-71
2022/08/04 19:35:26;;;;;;;;;;;16.60;87.60;;;;;;5053805;28;20386;-71
2022/08/04 19:37:54;;;;;;;;;;;16.50;87.50;;;;;;5052609;28;19915;-71
2022/08/04 19:40:20;;;;;;;;;;;16.50;87.60;;;;;;5051919;28;19962;-71
2022/08/04 19:42:47;;;;;;;;;;;16.50;87.70;;;;;;5035596;28;19909;-72
2022/08/04 19:45:13;;;;;;;;;;;16.50;87.60;;;;;;5054255;28;19987;-70